Cains Store, Kentucky
Current Conditions -  °F | °C
As of 11:15 PM on Sunday 23 Nov 2014 (Local Time) from KSME Reporting Station
Heavy Rain Heavy Rain  
Wind Chill: 57°   Ceiling: 1800
Heat Index: 57°   Visibility: 7mi
Dew Point: 55°   Wind: 15mph
Humidity: 94%   Direction: 200°SSW
Pressure: 29.47"   Gusts: 25mph
Location:  37.0701°N, 84.793°W
Report Text: KSME 240415Z AUTO 20013G22KT 7SM +RA BKN018 OVC024 14/13 A2947 RMK AO2
Loading
Personal Weather Stations






























Interactive Weather Map New forecast layout! Learn more

10-Day Weather Forecast

Advertisements
Track Severe Weather on mobile